Madelia, Minnesota
Current Conditions -  °F | °C
As of 4:14 PM on Sunday 23 Nov 2014 (Local Time) from KJYG Reporting Station
Overcast Overcast  
Wind Chill: 32°   Ceiling: 2000
Heat Index: 41°   Visibility: 10mi
Dew Point: 37°   Wind: 17mph
Humidity: 87%   Direction: 300°WNW
Pressure: 29.45"   Gusts: NA
Location:  44.05°N, 94.42°W
Report Text: KJYG 232214Z AUTO 30015KT 10SM SCT009 SCT016 OVC020 05/03 A2945 RMK AO2
Loading
Personal Weather Stations






























Interactive Weather Map New forecast layout! Learn more

10-Day Weather Forecast

Advertisements
Track Severe Weather on mobile